Time;durP1;ratioP1;P1;durP2;ratioP2;P2;SDS_P1;SDS_P2;PMS_P1;PMS_P2;Temp;Humidity;BMP_temperature;BMP_pressure;BME280_temperature;BME280_humidity;BME280_pressure;Samples;Min_cycle;Max_cycle;Signal;HPM_P1;HPM_P2
2023/04/05 00:00:35;;;;;;;7.93;5.35;;;;;;;0.07;86.98;100030.78;5093941;28;20031;-59
2023/04/05 00:03:01;;;;;;;12.77;5.90;;;;;;;-0.15;83.59;100024.19;5100769;28;20036;-59
2023/04/05 00:05:30;;;;;;;10.27;5.22;;;;;;;-0.05;84.75;100032.84;5099990;28;20034;-59
2023/04/05 00:07:59;;;;;;;11.10;5.78;;;;;;;0.25;87.05;100036.00;5098603;28;20500;-59
2023/04/05 00:10:25;;;;;;;8.45;4.82;;;;;;;0.37;83.69;100024.19;5092648;28;20024;-59
2023/04/05 00:12:51;;;;;;;7.03;4.95;;;;;;;0.19;77.76;100029.53;5087787;28;20028;-58
2023/04/05 00:15:16;;;;;;;8.90;5.53;;;;;;;0.08;85.96;100021.91;5100657;28;20101;-59
2023/04/05 00:17:42;;;;;;;6.70;4.55;;;;;;;0.08;82.06;100021.91;5094053;28;20031;-59
2023/04/05 00:20:12;;;;;;;16.20;5.13;;;;;;;-0.16;81.55;100027.84;5087418;28;20036;-59
2023/04/05 00:22:37;;;;;;;7.93;4.82;;;;;;;-0.31;82.46;100015.19;5094840;28;20513;-59
2023/04/05 00:25:03;;;;;;;9.40;5.35;;;;;;;-0.38;81.67;100022.06;5097676;28;20055;-58
2023/04/05 00:27:29;;;;;;;6.93;4.47;;;;;;;-0.46;80.55;100014.09;5099415;28;20644;-59
2023/04/05 00:29:54;;;;;;;8.70;4.95;;;;;;;-0.36;81.77;100009.56;5095829;28;20028;-59
2023/04/05 00:32:20;;;;;;;9.30;5.03;;;;;;;-0.01;83.47;100003.38;5099178;28;20032;-59
2023/04/05 00:34:45;;;;;;;7.68;5.05;;;;;;;-0.05;81.34;100009.13;5094144;28;20079;-60
2023/04/05 00:37:11;;;;;;;8.27;5.40;;;;;;;-0.23;80.70;99999.44;5091451;28;20035;-61
2023/04/05 00:39:38;;;;;;;9.07;5.38;;;;;;;-0.40;80.89;100004.75;5100669;28;20032;-58
2023/04/05 00:42:04;;;;;;;13.38;5.72;;;;;;;-0.38;83.90;100003.63;5101371;28;20534;-59
2023/04/05 00:44:33;;;;;;;7.90;5.43;;;;;;;-0.47;85.95;100001.91;5091288;28;20119;-58
2023/04/05 00:47:08;;;;;;;11.18;5.63;;;;;;;-0.62;86.24;100000.78;5094686;28;20044;-59
2023/04/05 00:49:34;;;;;;;9.60;5.55;;;;;;;-0.83;87.83;100003.72;5091960;28;20097;-59
2023/04/05 00:52:00;;;;;;;8.55;5.22;;;;;;;-0.77;86.54;99993.44;5089972;28;20028;-58
2023/04/05 00:54:27;;;;;;;9.77;5.18;;;;;;;-0.82;83.36;99987.78;5099183;28;20339;-59
2023/04/05 00:56:54;;;;;;;8.25;4.75;;;;;;;-0.83;82.29;99991.38;5091078;28;20080;-59
2023/04/05 00:59:20;;;;;;;8.55;5.07;;;;;;;-0.86;82.55;99989.06;5094381;28;20023;-59
2023/04/05 01:01:53;;;;;;;8.50;4.90;;;;;;;-0.89;84.42;99981.47;5093221;28;20027;-59
2023/04/05 01:04:24;;;;;;;8.85;5.00;;;;;;;-0.71;81.99;99990.19;5090516;28;20027;-59
2023/04/05 01:06:59;;;;;;;8.88;5.60;;;;;;;-0.79;81.94;99982.22;5076408;28;20043;-59
2023/04/05 01:09:37;;;;;;;9.23;5.70;;;;;;;-0.88;84.96;99988.38;5095057;28;20039;-59
2023/04/05 01:12:05;;;;;;;8.93;5.50;;;;;;;-0.85;87.80;99992.50;5091345;28;20028;-59
2023/04/05 01:14:31;;;;;;;9.27;5.35;;;;;;;-0.74;91.11;99994.94;5099413;28;20699;-59
2023/04/05 01:16:57;;;;;;;8.02;5.53;;;;;;;-0.50;94.07;99991.66;5091230;28;20063;-58
2023/04/05 01:19:27;;;;;;;8.20;5.20;;;;;;;-0.59;90.92;99992.59;5094423;28;20023;-59
2023/04/05 01:22:31;;;;;;;7.82;5.50;;;;;;;-0.74;88.21;99985.22;5087548;28;20108;-59
2023/04/05 01:25:24;;;;;;;9.18;5.32;;;;;;;-0.75;91.08;99988.84;5090823;28;20116;-58
2023/04/05 01:27:58;;;;;;;8.90;5.32;;;;;;;-1.02;89.11;99988.88;5091307;28;20032;-58
2023/04/05 01:30:29;;;;;;;8.75;5.60;;;;;;;-0.94;89.78;99979.28;5093934;28;20024;-59
2023/04/05 01:33:17;;;;;;;9.80;6.43;;;;;;;-0.80;86.45;99979.72;5087471;28;20051;-58
2023/04/05 01:36:02;;;;;;;9.25;5.82;;;;;;;-0.78;86.42;99975.13;5089737;28;20323;-58
2023/04/05 01:38:28;;;;;;;8.98;5.22;;;;;;;-0.84;86.27;99981.03;5090865;28;20107;-59
2023/04/05 01:40:53;;;;;;;13.48;6.00;;;;;;;-0.83;86.33;99969.50;5088078;28;20024;-59
2023/04/05 01:43:19;;;;;;;8.68;5.65;;;;;;;-0.93;85.61;99970.41;5092097;28;20020;-58
2023/04/05 01:45:44;;;;;;;9.02;5.50;;;;;;;-1.03;85.87;99976.72;5093884;28;20063;-58
2023/04/05 01:48:10;;;;;;;9.35;5.97;;;;;;;-0.98;86.18;99971.84;5096915;28;20058;-58
2023/04/05 01:50:36;;;;;;;8.85;5.43;;;;;;;-0.83;88.94;99975.59;5091801;28;20027;-58
2023/04/05 01:53:01;;;;;;;7.85;5.32;;;;;;;-0.72;90.21;99977.19;5091096;28;20058;-58
2023/04/05 01:55:26;;;;;;;7.88;5.70;;;;;;;-1.03;86.91;99976.72;5093321;28;20477;-58
2023/04/05 01:57:54;;;;;;;9.85;6.32;;;;;;;-1.18;86.32;99961.44;5092939;28;20462;-58
2023/04/05 02:00:20;;;;;;;8.65;5.53;;;;;;;-1.25;86.57;99965.63;5091752;28;20069;-58
2023/04/05 02:02:45;;;;;;;6.53;4.93;;;;;;;-1.17;85.89;99962.28;5093067;28;20020;-58
2023/04/05 02:05:11;;;;;;;12.18;6.10;;;;;;;-1.08;84.46;99951.66;5092316;28;20305;-59
2023/04/05 02:07:36;;;;;;;9.80;5.88;;;;;;;-1.06;84.92;99953.34;5093287;28;20509;-59
2023/04/05 02:10:02;;;;;;;9.57;6.00;;;;;;;-0.99;86.40;99954.41;5093985;28;20035;-58
2023/04/05 02:12:27;;;;;;;7.43;5.72;;;;;;;-0.97;85.46;99948.00;5101521;28;20106;-58
2023/04/05 02:14:53;;;;;;;8.75;5.40;;;;;;;-1.01;85.58;99946.66;5097458;28;20036;-59
2023/04/05 02:17:18;;;;;;;8.48;5.43;;;;;;;-1.10;86.82;99947.53;5100230;28;20092;-59
2023/04/05 02:19:45;;;;;;;9.25;5.95;;;;;;;-0.81;93.69;99947.31;5097055;28;20370;-59
2023/04/05 02:22:10;;;;;;;11.70;5.40;;;;;;;-0.97;87.75;99949.81;5103378;28;20137;-58
2023/04/05 02:24:36;;;;;;;9.07;5.85;;;;;;;-0.84;88.28;99949.44;5105883;28;20388;-58
2023/04/05 02:27:01;;;;;;;11.32;5.65;;;;;;;-0.99;85.80;99934.16;5096186;28;20028;-58
2023/04/05 02:29:26;;;;;;;8.35;5.25;;;;;;;-1.03;89.18;99940.69;5095208;28;20024;-58
2023/04/05 02:31:52;;;;;;;10.90;5.70;;;;;;;-1.14;88.16;99936.50;5098224;27;20032;-58
2023/04/05 02:34:17;;;;;;;7.72;5.57;;;;;;;-1.17;87.88;99931.53;5095020;28;20950;-58
2023/04/05 02:36:43;;;;;;;12.82;6.00;;;;;;;-1.16;87.12;99937.63;5094950;28;20500;-58
2023/04/05 02:39:08;;;;;;;9.20;5.82;;;;;;;-1.16;86.89;99937.63;5092358;28;20040;-58
2023/04/05 02:41:35;;;;;;;8.02;5.53;;;;;;;-1.13;89.24;99946.03;5099083;28;20027;-59
2023/04/05 02:44:00;;;;;;;9.63;5.38;;;;;;;-1.14;90.08;99936.50;5097557;28;20381;-58
2023/04/05 02:46:26;;;;;;;9.27;6.05;;;;;;;-1.29;90.05;99948.50;5100679;28;20024;-58
2023/04/05 02:48:51;;;;;;;9.63;5.57;;;;;;;-1.34;92.94;99940.25;5093336;28;20490;-58
2023/04/05 02:51:17;;;;;;;9.77;5.88;;;;;;;-1.53;92.57;99938.53;5098669;28;20066;-58
2023/04/05 02:53:43;;;;;;;9.00;5.78;;;;;;;-1.64;92.44;99936.94;5099852;28;20492;-58
2023/04/05 02:56:10;;;;;;;7.95;5.20;;;;;;;-1.64;90.84;99931.69;5094661;28;20306;-59
2023/04/05 02:58:36;;;;;;;10.45;5.78;;;;;;;-1.54;89.03;99936.91;5098133;28;20702;-58
2023/04/05 03:01:06;;;;;;;8.77;5.43;;;;;;;-1.56;89.02;99933.56;5103543;28;20059;-58
2023/04/05 03:03:33;;;;;;;10.98;5.82;;;;;;;-1.56;88.74;99931.78;5097776;28;20226;-58
2023/04/05 03:06:09;;;;;;;7.25;5.32;;;;;;;-1.54;92.22;99935.09;5095993;28;20267;-59
2023/04/05 03:08:37;;;;;;;8.23;5.47;;;;;;;-1.63;89.53;99935.97;5093742;28;20024;-58
2023/04/05 03:11:06;;;;;;;11.63;6.93;;;;;;;-1.59;92.27;99932.06;5095284;28;20039;-58
2023/04/05 03:13:31;;;;;;;10.48;6.30;;;;;;;-1.54;92.10;99924.56;5093817;28;20548;-58
2023/04/05 03:15:56;;;;;;;8.77;6.13;;;;;;;-1.63;90.76;99925.44;5096838;28;20064;-58
2023/04/05 03:18:25;;;;;;;7.75;5.45;;;;;;;-1.68;90.38;99926.88;5098585;28;20423;-58
2023/04/05 03:20:56;;;;;;;11.95;6.10;;;;;;;-1.76;90.82;99923.16;5098705;28;20031;-58
2023/04/05 03:23:27;;;;;;;8.77;6.00;;;;;;;-1.81;91.50;99932.47;5094456;28;20067;-58
2023/04/05 03:26:00;;;;;;;11.40;6.22;;;;;;;-1.97;91.79;99923.41;5094354;28;20020;-58
2023/04/05 03:28:25;;;;;;;8.65;6.35;;;;;;;-1.84;95.14;99927.50;5098852;28;20032;-58
2023/04/05 03:30:51;;;;;;;10.07;6.13;;;;;;;-2.01;91.64;99924.66;5091733;28;20028;-58
2023/04/05 03:33:17;;;;;;;9.82;6.22;;;;;;;-1.96;93.63;99929.47;5092757;28;20020;-58
2023/04/05 03:35:43;;;;;;;9.45;6.18;;;;;;;-2.01;91.91;99929.91;5096462;28;20023;-58
2023/04/05 03:38:08;;;;;;;10.35;6.07;;;;;;;-1.88;93.42;99926.13;5095147;27;20028;-57
2023/04/05 03:40:34;;;;;;;10.65;5.97;;;;;;;-1.98;91.95;99927.00;5095730;28;20028;-58
2023/04/05 03:42:59;;;;;;;8.93;5.68;;;;;;;-1.68;97.30;99925.06;5096571;28;20054;-58
2023/04/05 03:45:28;;;;;;;11.35;5.75;;;;;;;-2.08;92.99;99920.94;5097331;28;20031;-61
2023/04/05 03:47:54;;;;;;;11.18;6.72;;;;;;;-2.12;92.43;99930.09;5095632;28;20117;-60
2023/04/05 03:50:19;;;;;;;11.00;7.07;;;;;;;-1.72;99.24;99928.97;5095712;28;20024;-59
2023/04/05 03:52:45;;;;;;;12.25;6.50;;;;;;;-1.87;95.54;99933.03;5092123;28;20028;-60
2023/04/05 03:55:12;;;;;;;9.43;5.97;;;;;;;-2.17;91.68;99937.59;5097920;28;20064;-60
2023/04/05 03:57:37;;;;;;;11.40;5.90;;;;;;;-2.24;91.27;99931.25;5098096;28;20063;-60
2023/04/05 04:00:13;;;;;;;10.65;6.85;;;;;;;-2.34;91.79;99930.44;5095755;28;20034;-60
2023/04/05 04:02:45;;;;;;;8.98;5.95;;;;;;;-2.32;93.38;99936.34;5084774;28;20041;-60
2023/04/05 04:05:11;;;;;;;10.48;6.00;;;;;;;-2.48;92.82;99924.66;5100050;28;20379;-59
2023/04/05 04:07:37;;;;;;;9.85;6.47;;;;;;;-2.45;93.53;99927.00;5098630;27;20289;-61
2023/04/05 04:10:05;;;;;;;15.68;6.35;;;;;;;-2.10;96.27;99920.25;5103957;28;20036;-60
2023/04/05 04:12:30;;;;;;;14.18;6.85;;;;;;;-2.36;91.97;99933.19;5099681;28;20266;-58
2023/04/05 04:14:56;;;;;;;7.38;5.35;;;;;;;-2.43;91.88;99929.47;5096018;28;20063;-58
2023/04/05 04:17:31;;;;;;;10.45;5.85;;;;;;;-2.46;92.64;99933.22;5096013;28;20038;-59
2023/04/05 04:19:57;;;;;;;15.25;7.13;;;;;;;-2.34;94.54;99925.19;5092661;28;20023;-58
2023/04/05 04:22:25;;;;;;;9.50;6.53;;;;;;;-2.36;94.04;99930.56;5102007;28;20042;-58
2023/04/05 04:24:52;;;;;;;12.43;7.00;;;;;;;-2.17;97.91;99921.81;5087770;28;20181;-59
2023/04/05 04:27:19;;;;;;;11.50;7.38;;;;;;;-2.18;96.38;99923.59;5089691;28;20452;-59
2023/04/05 04:29:48;;;;;;;11.00;7.20;;;;;;;-2.38;93.95;99925.47;5100856;28;20110;-58
2023/04/05 04:32:25;;;;;;;12.45;7.00;;;;;;;-2.08;98.43;99920.94;5096759;28;20448;-58
2023/04/05 04:34:53;;;;;;;9.85;6.75;;;;;;;-2.23;95.17;99927.63;5094320;28;20059;-59
2023/04/05 04:37:21;;;;;;;12.70;7.00;;;;;;;-2.38;94.22;99932.50;5095742;28;20039;-59
2023/04/05 04:39:47;;;;;;;12.57;6.50;;;;;;;-2.44;95.56;99923.41;5092998;28;20051;-59
2023/04/05 04:42:18;;;;;;;14.38;6.50;;;;;;;-2.60;94.01;99928.41;5095190;28;20420;-59
2023/04/05 04:44:44;;;;;;;12.35;6.07;;;;;;;-2.73;94.02;99920.00;5096525;28;20028;-58
2023/04/05 04:47:12;;;;;;;11.45;6.78;;;;;;;-2.90;94.03;99918.91;5093613;28;20039;-63
2023/04/05 04:49:40;;;;;;;12.82;6.90;;;;;;;-2.91;95.11;99918.09;5096748;28;20035;-59
2023/04/05 04:52:06;;;;;;;11.70;6.40;;;;;;;-2.65;98.88;99928.81;5097506;28;20055;-59
2023/04/05 04:54:35;;;;;;;14.52;7.05;;;;;;;-2.61;97.73;99932.00;5089047;28;20039;-60
2023/04/05 04:57:01;;;;;;;13.32;6.75;;;;;;;-2.75;95.44;99922.75;5098693;28;20484;-60
2023/04/05 04:59:27;;;;;;;11.73;6.55;;;;;;;-2.76;94.74;99928.16;5095650;28;20122;-60
2023/04/05 05:01:53;;;;;;;9.80;6.70;;;;;;;-2.83;94.82;99931.31;5094795;28;20031;-60
2023/04/05 05:04:18;;;;;;;9.45;6.28;;;;;;;-2.88;94.76;99933.53;5102931;28;20450;-60
2023/04/05 05:06:43;;;;;;;10.60;6.90;;;;;;;-2.87;94.10;99927.34;5090215;28;20028;-60
2023/04/05 05:09:09;;;;;;;10.75;6.20;;;;;;;-2.81;94.60;99928.56;5094213;28;20040;-59
2023/04/05 05:11:35;;;;;;;10.40;6.55;;;;;;;-2.70;94.21;99928.41;5100374;28;20042;-60
2023/04/05 05:14:00;;;;;;;11.50;6.55;;;;;;;-2.64;93.66;99927.88;5090531;28;20024;-60
2023/04/05 05:16:26;;;;;;;10.45;6.65;;;;;;;-2.64;92.63;99941.00;5094490;28;20051;-58
2023/04/05 05:18:53;;;;;;;9.10;5.97;;;;;;;-2.44;92.00;99935.72;5091891;28;20020;-61
2023/04/05 05:21:25;;;;;;;13.93;7.28;;;;;;;-1.91;93.49;99934.31;5080279;28;20076;-59
2023/04/05 05:23:50;;;;;;;10.50;6.70;;;;;;;-1.69;91.32;99936.56;5095632;28;20107;-59
2023/04/05 05:26:16;;;;;;;11.98;6.93;;;;;;;-1.84;88.21;99936.22;5096327;28;20128;-59
2023/04/05 05:28:42;;;;;;;11.38;7.25;;;;;;;-2.04;88.37;99927.56;5095407;28;20055;-59
2023/04/05 05:31:09;;;;;;;9.55;6.40;;;;;;;-2.11;90.25;99934.38;5098810;28;20454;-59
2023/04/05 05:33:35;;;;;;;9.65;6.32;;;;;;;-1.69;89.77;99936.56;5096294;28;20111;-58
2023/04/05 05:36:02;;;;;;;9.95;5.82;;;;;;;-0.13;86.48;99927.38;5089687;28;20096;-59
2023/04/05 05:38:27;;;;;;;7.80;5.68;;;;;;;2.10;71.57;99938.91;5096470;28;20063;-59
2023/04/05 05:40:56;;;;;;;11.07;5.57;;;;;;;3.66;63.33;99930.81;5091631;28;20484;-59
2023/04/05 05:43:22;;;;;;;13.65;5.47;;;;;;;4.58;58.51;99937.59;5095616;28;20038;-59
2023/04/05 05:45:47;;;;;;;7.55;5.63;;;;;;;5.09;55.75;99934.88;5090281;28;20024;-59
2023/04/05 05:48:13;;;;;;;14.60;6.10;;;;;;;5.07;54.86;99939.56;5092544;28;20711;-60
2023/04/05 05:50:39;;;;;;;7.93;5.13;;;;;;;4.80;58.60;99933.97;5099302;28;20054;-60
2023/04/05 05:53:04;;;;;;;8.02;5.38;;;;;;;6.18;54.18;99930.00;5106631;28;20024;-59
2023/04/05 05:55:30;;;;;;;7.60;5.32;;;;;;;8.27;48.50;99928.22;5098017;27;20032;-59
2023/04/05 05:57:56;;;;;;;7.75;5.05;;;;;;;8.42;47.35;99931.50;5097471;28;20030;-61
2023/04/05 06:00:22;;;;;;;8.40;5.70;;;;;;;9.28;45.48;99940.91;5101755;28;20020;-60
2023/04/05 06:02:48;;;;;;;7.45;5.40;;;;;;;7.86;47.84;99937.31;5098582;28;20016;-61
2023/04/05 06:05:13;;;;;;;11.05;6.63;;;;;;;8.22;47.35;99936.84;5099504;28;20047;-59
2023/04/05 06:07:39;;;;;;;10.68;6.53;;;;;;;8.09;47.96;99943.06;5095628;28;20055;-61
2023/04/05 06:10:05;;;;;;;8.00;5.95;;;;;;;8.34;48.12;99940.53;5103549;28;20028;-60
2023/04/05 06:12:31;;;;;;;11.00;5.63;;;;;;;9.00;46.04;99943.97;5091314;28;20463;-60
2023/04/05 06:14:56;;;;;;;8.20;5.75;;;;;;;8.77;45.93;99949.84;5098077;28;20067;-60
2023/04/05 06:17:22;;;;;;;9.85;5.72;;;;;;;8.19;47.23;99942.63;5099604;28;20085;-60
2023/04/05 06:19:47;;;;;;;10.23;5.90;;;;;;;8.77;46.56;99956.00;5101098;28;20028;-60
2023/04/05 06:22:13;;;;;;;15.32;6.70;;;;;;;9.09;45.97;99953.38;5102614;28;20138;-58
2023/04/05 06:24:38;;;;;;;9.63;6.75;;;;;;;8.19;47.40;99948.78;5100247;28;20031;-60
2023/04/05 06:27:03;;;;;;;9.57;6.88;;;;;;;8.47;46.71;99950.38;5092059;28;20462;-58
2023/04/05 06:29:30;;;;;;;10.60;6.65;;;;;;;8.16;47.34;99951.03;5104304;28;20073;-60
2023/04/05 06:31:55;;;;;;;12.40;6.82;;;;;;;8.12;47.90;99964.00;5098908;28;20386;-59
2023/04/05 06:34:21;;;;;;;14.30;7.18;;;;;;;8.97;46.68;99955.09;5099542;28;20027;-61
2023/04/05 06:36:46;;;;;;;10.15;7.30;;;;;;;8.87;45.95;99957.41;5102389;28;20023;-60
2023/04/05 06:39:12;;;;;;;12.63;7.47;;;;;;;9.73;44.11;99956.81;5104074;28;20034;-60
2023/04/05 06:41:37;;;;;;;9.80;6.75;;;;;;;8.83;46.08;99957.81;5102732;28;20352;-60
2023/04/05 06:44:03;;;;;;;9.85;7.10;;;;;;;9.17;45.11;99957.66;5099412;28;20081;-60
2023/04/05 06:46:28;;;;;;;13.15;7.25;;;;;;;9.66;45.06;99954.22;5095948;28;20531;-59
2023/04/05 06:48:54;;;;;;;10.00;6.90;;;;;;;9.94;43.94;99955.63;5100411;28;20138;-59
2023/04/05 06:51:20;;;;;;;12.10;6.70;;;;;;;11.29;42.29;99953.81;5098874;28;20016;-59
2023/04/05 06:53:45;;;;;;;10.35;7.57;;;;;;;10.20;43.81;99953.72;5091125;27;20028;-59
2023/04/05 06:56:11;;;;;;;9.90;6.43;;;;;;;10.11;43.67;99948.66;5099685;28;20024;-59
2023/04/05 06:58:36;;;;;;;13.05;7.47;;;;;;;9.62;45.04;99958.34;5100622;28;20454;-59
2023/04/05 07:01:02;;;;;;;11.18;7.15;;;;;;;9.76;45.39;99958.22;5095641;28;20028;-59
2023/04/05 07:03:27;;;;;;;12.95;7.97;;;;;;;10.14;44.70;99953.56;5098877;28;20031;-59
2023/04/05 07:05:55;;;;;;;14.07;8.32;;;;;;;10.10;44.43;99955.03;5094246;28;20380;-59
2023/04/05 07:08:21;;;;;;;11.43;7.35;;;;;;;10.21;44.30;99960.69;5097907;28;20032;-59
2023/04/05 07:10:47;;;;;;;9.65;6.68;;;;;;;9.56;44.36;99953.88;5099081;28;20032;-59
2023/04/05 07:13:12;;;;;;;13.73;7.40;;;;;;;9.78;45.29;99956.16;5097673;28;20460;-59
2023/04/05 07:15:38;;;;;;;11.77;7.57;;;;;;;9.68;45.18;99952.13;5097106;28;20084;-59
2023/04/05 07:18:03;;;;;;;11.52;7.25;;;;;;;9.28;46.34;99949.75;5099586;28;20104;-61
2023/04/05 07:20:29;;;;;;;13.63;7.82;;;;;;;9.36;45.37;99953.19;5104481;28;20024;-60
2023/04/05 07:22:55;;;;;;;14.18;8.35;;;;;;;9.39;45.58;99950.09;5089872;28;20039;-60
2023/04/05 07:25:20;;;;;;;12.73;7.65;;;;;;;9.93;45.61;99948.59;5102790;28;20088;-59
2023/04/05 07:27:45;;;;;;;17.88;8.85;;;;;;;10.24;44.38;99941.50;5098152;28;20035;-59
2023/04/05 07:30:14;;;;;;;16.00;8.43;;;;;;;10.06;45.33;99947.66;5100601;28;20023;-59
2023/04/05 07:32:40;;;;;;;18.83;7.93;;;;;;;9.76;45.16;99943.00;5096677;28;20046;-59
2023/04/05 07:35:06;;;;;;;27.40;9.48;;;;;;;9.66;46.37;99942.66;5096240;28;20473;-59
2023/04/05 07:37:31;;;;;;;19.05;9.00;;;;;;;9.33;47.37;99940.25;5095651;28;20403;-59
2023/04/05 07:39:57;;;;;;;16.60;9.43;;;;;;;9.47;46.96;99945.28;5094343;28;20093;-59
2023/04/05 07:42:23;;;;;;;12.20;8.52;;;;;;;9.98;46.43;99938.03;5100976;28;20024;-59
2023/04/05 07:44:48;;;;;;;15.40;8.63;;;;;;;8.82;47.53;99936.66;5095505;28;20047;-59
2023/04/05 07:47:13;;;;;;;14.18;8.38;;;;;;;9.69;47.02;99936.91;5099932;28;20020;-59
2023/04/05 07:49:39;;;;;;;17.70;8.23;;;;;;;9.72;46.67;99937.25;5095104;28;20031;-59
2023/04/05 07:52:05;;;;;;;21.00;9.07;;;;;;;9.36;46.85;99943.34;5093980;28;20478;-59
2023/04/05 07:54:32;;;;;;;15.02;8.65;;;;;;;8.50;47.75;99939.25;5096134;28;20083;-59
2023/04/05 07:56:57;;;;;;;14.05;8.25;;;;;;;9.28;48.23;99936.38;5092071;28;20036;-59
2023/04/05 07:59:23;;;;;;;15.15;8.52;;;;;;;10.12;45.65;99942.22;5098001;28;20034;-59
2023/04/05 08:01:48;;;;;;;17.02;8.10;;;;;;;9.89;46.59;99936.72;5101762;28;20055;-59
2023/04/05 08:04:14;;;;;;;23.17;8.02;;;;;;;9.13;47.44;99930.50;5092340;28;20374;-59
2023/04/05 08:06:39;;;;;;;12.52;7.30;;;;;;;9.10;47.64;99936.28;5089360;28;20020;-59
2023/04/05 08:09:05;;;;;;;18.90;7.68;;;;;;;9.67;47.20;99928.25;5091805;28;20035;-59
2023/04/05 08:11:31;;;;;;;16.30;8.63;;;;;;;9.98;46.71;99923.84;5095014;28;20043;-59
2023/04/05 08:13:56;;;;;;;12.18;7.20;;;;;;;9.26;48.31;99917.06;5092202;28;20317;-60
2023/04/05 08:16:22;;;;;;;13.73;7.07;;;;;;;9.92;47.30;99929.03;5090993;28;20051;-59
2023/04/05 08:18:47;;;;;;;15.38;7.18;;;;;;;10.07;46.41;99923.34;5097664;28;20027;-59
2023/04/05 08:21:13;;;;;;;18.55;7.50;;;;;;;10.65;46.42;99923.94;5096668;28;20470;-59
2023/04/05 08:23:38;;;;;;;14.88;7.00;;;;;;;11.10;44.82;99920.84;5098714;28;20069;-59
2023/04/05 08:26:04;;;;;;;18.80;7.18;;;;;;;10.72;45.86;99924.69;5095765;28;20073;-59
2023/04/05 08:28:30;;;;;;;27.33;7.10;;;;;;;10.10;46.55;99922.88;5093009;28;20028;-59
2023/04/05 08:30:56;;;;;;;16.58;7.05;;;;;;;10.70;46.19;99916.84;5094202;28;20393;-64
2023/04/05 08:33:29;;;;;;;20.42;7.10;;;;;;;10.66;45.91;99920.22;5096910;28;20114;-60
2023/04/05 08:35:56;;;;;;;19.10;7.25;;;;;;;9.78;46.24;99916.81;5098094;28;20032;-60
2023/04/05 08:38:22;;;;;;;17.88;7.65;;;;;;;9.26;48.36;99913.53;5101517;28;20414;-60
2023/04/05 08:40:47;;;;;;;15.25;7.28;;;;;;;9.48;47.05;99914.00;5098554;28;20156;-60
2023/04/05 08:43:24;;;;;;;13.15;7.88;;;;;;;10.20;46.27;99908.16;5092942;28;20067;-60
2023/04/05 08:45:50;;;;;;;20.20;7.35;;;;;;;10.17;47.63;99905.94;5093290;28;20028;-60
2023/04/05 08:48:16;;;;;;;30.38;7.97;;;;;;;10.88;45.85;99905.25;5097734;27;20024;-60
2023/04/05 08:50:51;;;;;;;15.32;6.95;;;;;;;10.38;46.39;99905.50;5095017;28;20070;-59
2023/04/05 08:53:20;;;;;;;18.77;6.95;;;;;;;11.16;44.43;99912.72;5092172;28;20043;-59
2023/04/05 08:55:50;;;;;;;10.32;5.93;;;;;;;11.19;43.39;99908.75;5093753;28;20110;-60
2023/04/05 08:58:16;;;;;;;18.90;7.00;;;;;;;10.95;44.21;99908.66;5092671;28;20028;-60
2023/04/05 09:00:41;;;;;;;9.80;6.18;;;;;;;10.67;42.43;99911.94;5093065;28;20408;-60
2023/04/05 09:03:07;;;;;;;16.17;6.38;;;;;;;10.68;42.92;99904.72;5095050;28;20513;-60
2023/04/05 09:05:33;;;;;;;14.40;6.60;;;;;;;11.50;43.04;99907.63;5074566;28;20043;-60
2023/04/05 09:07:58;;;;;;;17.70;7.68;;;;;;;12.08;42.76;99906.00;5094557;28;20036;-60
2023/04/05 09:10:24;;;;;;;14.23;6.25;;;;;;;12.11;41.28;99907.44;5073659;28;20024;-60
2023/04/05 09:12:49;;;;;;;15.23;6.18;;;;;;;11.92;41.63;99914.81;5088419;28;20490;-60
2023/04/05 09:15:15;;;;;;;16.30;6.40;;;;;;;11.87;40.32;99910.94;5087227;28;20047;-60
2023/04/05 09:17:41;;;;;;;12.38;6.63;;;;;;;10.94;41.89;99903.56;5094720;28;20328;-60
2023/04/05 09:20:06;;;;;;;11.60;5.15;;;;;;;9.89;41.96;99909.94;5092247;28;20023;-60
2023/04/05 09:22:42;;;;;;;15.07;6.05;;;;;;;11.74;41.92;99904.97;5100616;28;20453;-60
2023/04/05 09:25:07;;;;;;;17.00;6.32;;;;;;;12.10;41.27;99914.66;5094871;28;20086;-59
2023/04/05 09:27:33;;;;;;;12.40;5.93;;;;;;;11.62;41.05;99915.69;5092050;28;20032;-59
2023/04/05 09:29:58;;;;;;;14.77;6.70;;;;;;;11.52;41.58;99905.53;5096828;28;20095;-59
2023/04/05 09:32:24;;;;;;;15.63;6.22;;;;;;;12.59;41.73;99904.41;5092349;28;20028;-61
2023/04/05 09:34:51;;;;;;;12.10;6.35;;;;;;;11.13;42.00;99899.75;5095625;28;20380;-60
2023/04/05 09:37:18;;;;;;;18.88;7.32;;;;;;;11.63;42.41;99899.38;5080665;28;20023;-60
2023/04/05 09:39:44;;;;;;;15.18;5.63;;;;;;;11.42;43.21;99894.56;5096965;28;20534;-59
2023/04/05 09:42:14;;;;;;;10.73;6.20;;;;;;;10.68;42.63;99896.69;5091413;28;20024;-58
2023/04/05 09:45:03;;;;;;;26.77;6.28;;;;;;;11.54;42.65;99891.91;5096246;28;20028;-60
2023/04/05 09:47:31;;;;;;;15.43;6.10;;;;;;;12.89;40.75;99895.28;5094723;28;20036;-59
2023/04/05 09:49:57;;;;;;;10.80;6.00;;;;;;;12.85;40.12;99894.13;5097920;28;20069;-58
2023/04/05 09:52:24;;;;;;;13.13;5.68;;;;;;;12.84;40.17;99897.88;5099067;28;20027;-58
2023/04/05 09:54:51;;;;;;;13.05;5.68;;;;;;;12.57;39.76;99903.81;5092042;28;20019;-58
2023/04/05 09:57:19;;;;;;;10.98;5.90;;;;;;;11.64;41.93;99886.75;5091989;28;20067;-60
2023/04/05 09:59:48;;;;;;;10.90;5.72;;;;;;;11.73;40.81;99893.44;5099298;28;20110;-61
2023/04/05 10:02:14;;;;;;;19.92;6.05;;;;;;;11.94;41.41;99888.53;5078916;28;20031;-60
2023/04/05 10:04:44;;;;;;;12.68;5.65;;;;;;;12.19;40.44;99891.75;5089808;28;20378;-60
2023/04/05 10:07:12;;;;;;;8.68;6.00;;;;;;;12.91;38.57;99887.78;5089207;28;20115;-61
2023/04/05 10:09:38;;;;;;;9.98;5.53;;;;;;;12.70;39.55;99879.34;5097653;28;20466;-59
2023/04/05 10:12:04;;;;;;;11.70;5.90;;;;;;;12.65;37.34;99879.22;5089699;28;20214;-58
2023/04/05 10:14:29;;;;;;;9.60;6.40;;;;;;;11.33;40.04;99877.16;5084441;28;20251;-59
2023/04/05 10:17:11;;;;;;;10.63;5.90;;;;;;;10.71;40.91;99872.94;5096026;28;20035;-59
2023/04/05 10:19:55;;;;;;;9.70;5.97;;;;;;;12.59;38.59;99874.81;5094812;28;20055;-60
2023/04/05 10:23:00;;;;;;;12.00;6.32;;;;;;;11.98;38.91;99869.03;5093044;28;20055;-62
2023/04/05 10:26:03;;;;;;;12.52;5.88;;;;;;;12.96;36.85;99869.03;5065998;28;20044;-59
2023/04/05 10:28:33;;;;;;;11.10;5.93;;;;;;;11.15;38.82;99870.00;5080679;28;20040;-59
2023/04/05 10:31:12;;;;;;;12.15;6.32;;;;;;;11.30;38.03;99866.88;5095595;28;20024;-59
2023/04/05 10:33:46;;;;;;;10.88;6.45;;;;;;;11.10;39.57;99867.19;5086493;28;20036;-59
2023/04/05 10:36:37;;;;;;;11.20;6.05;;;;;;;12.83;38.62;99858.56;5088683;28;20057;-59
2023/04/05 10:39:16;;;;;;;8.32;5.85;;;;;;;12.06;38.18;99859.78;5103094;28;20038;-59
2023/04/05 10:41:47;;;;;;;9.48;5.72;;;;;;;13.44;37.16;99859.63;5100624;28;20035;-59
2023/04/05 10:44:13;;;;;;;10.18;5.85;;;;;;;13.25;36.89;99860.91;5089729;28;20031;-59
2023/04/05 10:46:39;;;;;;;11.68;5.97;;;;;;;13.22;37.03;99856.81;5095004;28;20035;-61
2023/04/05 10:49:26;;;;;;;10.45;5.80;;;;;;;13.27;37.04;99854.25;5097892;28;20035;-59
2023/04/05 10:51:51;;;;;;;11.43;6.22;;;;;;;12.83;37.08;99848.66;5095208;28;20020;-61
2023/04/05 10:54:18;;;;;;;13.02;6.07;;;;;;;12.64;37.89;99847.22;5089674;28;20024;-60
2023/04/05 10:56:44;;;;;;;9.75;6.07;;;;;;;13.41;36.74;99857.44;5093654;28;20063;-61
2023/04/05 10:59:11;;;;;;;9.63;5.88;;;;;;;13.49;35.36;99842.75;5085368;28;20371;-60
2023/04/05 11:01:37;;;;;;;10.63;5.90;;;;;;;13.37;36.59;99846.31;5096800;28;20103;-60
2023/04/05 11:04:15;;;;;;;13.40;7.00;;;;;;;12.73;35.99;99843.09;5080402;28;20051;-59
2023/04/05 11:06:41;;;;;;;12.35;5.95;;;;;;;12.42;35.49;99842.50;5093160;28;20026;-60
2023/04/05 11:09:11;;;;;;;10.10;5.78;;;;;;;13.00;35.40;99837.88;5100891;28;20253;-60
2023/04/05 11:11:41;;;;;;;10.52;5.85;;;;;;;13.17;33.64;99838.69;5091606;28;20031;-59
2023/04/05 11:14:34;;;;;;;11.20;6.28;;;;;;;12.49;35.40;99826.22;5101878;28;20064;-60
2023/04/05 11:17:03;;;;;;;12.35;5.53;;;;;;;12.02;35.89;99823.69;5091719;28;20093;-61
2023/04/05 11:19:47;;;;;;;11.47;6.57;;;;;;;9.84;37.31;99832.13;5080103;28;20023;-61
2023/04/05 11:22:23;;;;;;;12.80;6.50;;;;;;;10.72;38.81;99830.84;5091450;28;20024;-61
2023/04/05 11:24:57;;;;;;;11.52;5.97;;;;;;;11.57;36.90;99825.13;5096208;28;20023;-59
2023/04/05 11:27:36;;;;;;;10.18;6.70;;;;;;;10.51;38.38;99830.31;5090782;28;20500;-62
2023/04/05 11:30:05;;;;;;;11.02;6.55;;;;;;;9.91;39.21;99827.53;5100020;28;20110;-60
2023/04/05 11:32:43;;;;;;;10.97;6.47;;;;;;;8.73;41.09;99826.50;5094825;28;20390;-60